Reeds, Missouri
Current Conditions -  °F | °C
As of 3:35 AM on Saturday 20 Dec 2014 (Local Time) from KHFJ Reporting Station
Haze Haze  
Wind Chill: 34°   Ceiling: 300
Heat Index: 37°   Visibility: 1.2mi
Dew Point: 37°   Wind: 5mph
Humidity: 100%   Direction: 300°WNW
Pressure: 30.19"   Gusts: NA
Location:  37.12°N, 94.17°W
Report Text: KHFJ 200935Z AUTO 30004KT 1 1/4SM BR OVC003 03/03 A3019 RMK AO2
Loading
Personal Weather Stations






























Interactive Weather Map New forecast layout! Learn more

10-Day Weather Forecast

Advertisements
Track Severe Weather on mobile